Kitscoty, Canada
Current Conditions -  °F | °C
As of 9:00 AM on Sunday 23 Nov 2014 (Local Time) from CYLL Reporting Station
Few Clouds Few Clouds  
Wind Chill: -10°   Ceiling: Unl
Heat Index:   Visibility: 15mi
Dew Point:   Wind: 8mph
Humidity: 92%   Direction: 280°W
Pressure: 29.78"   Gusts: NA
Location:  53.34°N, 110.33°W
Report Text: CYLL 231600Z 28007KT 15SM FEW011 FEW270 M16/M17 A2978 RMK SC1CI1 SLP135
Loading
Personal Weather Stations






























Interactive Weather Map New forecast layout! Learn more

10-Day Weather Forecast

Advertisements
Track Severe Weather on mobile